Time;durP1;ratioP1;P1;durP2;ratioP2;P2;SDS_P1;SDS_P2;PMS_P1;PMS_P2;Temp;Humidity;BMP_temperature;BMP_pressure;BME280_temperature;BME280_humidity;BME280_pressure;Samples;Min_cycle;Max_cycle;Signal;HPM_P1;HPM_P2
2021/09/07 00:01:28;;;;;;;9.32;6.45;;;19.90;74.20;;;;;;5095444;28;20409;-70
2021/09/07 00:03:54;;;;;;;7.38;6.40;;;19.90;74.20;;;;;;5096776;28;20044;-70
2021/09/07 00:06:20;;;;;;;8.55;6.28;;;19.80;74.10;;;;;;5096311;28;20050;-70
2021/09/07 00:08:46;;;;;;;7.60;6.45;;;19.80;74.10;;;;;;5096918;28;20439;-70
2021/09/07 00:11:12;;;;;;;7.60;6.55;;;19.80;74.20;;;;;;5096972;28;20429;-70
2021/09/07 00:13:37;;;;;;;10.80;7.65;;;19.90;74.30;;;;;;5096210;28;20109;-70
2021/09/07 00:16:03;;;;;;;7.18;6.20;;;19.80;74.10;;;;;;5096634;28;20071;-70
2021/09/07 00:18:29;;;;;;;9.57;6.35;;;19.80;74.20;;;;;;5096729;28;20047;-70
2021/09/07 00:20:55;;;;;;;7.60;5.97;;;19.80;74.10;;;;;;5096815;28;20039;-70
2021/09/07 00:23:21;;;;;;;8.38;6.07;;;19.90;74.20;;;;;;5078475;28;20047;-70
2021/09/07 00:25:47;;;;;;;7.55;6.20;;;19.90;74.20;;;;;;5096854;28;20043;-70
2021/09/07 00:28:13;;;;;;;7.15;5.68;;;19.90;74.00;;;;;;5096136;28;20039;-69
2021/09/07 00:30:38;;;;;;;6.88;5.72;;;19.90;74.00;;;;;;5096217;28;20047;-70
2021/09/07 00:33:04;;;;;;;6.63;5.93;;;19.90;74.00;;;;;;5095343;28;20047;-70
2021/09/07 00:35:31;;;;;;;7.18;5.60;;;19.90;74.00;;;;;;5096226;28;20051;-70
2021/09/07 00:37:58;;;;;;;7.68;6.05;;;19.90;74.00;;;;;;5096276;28;20385;-70
2021/09/07 00:40:24;;;;;;;7.45;5.80;;;19.90;73.90;;;;;;5096058;28;20052;-70
2021/09/07 00:42:49;;;;;;;7.22;5.90;;;19.90;74.00;;;;;;5078303;28;20036;-70
2021/09/07 00:45:15;;;;;;;7.28;5.63;;;19.80;73.90;;;;;;5095932;28;20402;-70
2021/09/07 00:47:42;;;;;;;8.35;7.07;;;19.80;73.90;;;;;;5096149;28;20047;-69
2021/09/07 00:50:08;;;;;;;8.27;5.85;;;19.80;74.00;;;;;;5095775;28;20056;-71
2021/09/07 00:52:36;;;;;;;9.60;7.07;;;19.80;74.10;;;;;;5096522;28;20048;-70
2021/09/07 00:55:02;;;;;;;6.78;5.63;;;19.80;74.00;;;;;;5095598;28;20110;-69
2021/09/07 00:57:30;;;;;;;7.70;6.20;;;19.80;74.10;;;;;;5095811;28;20051;-69
2021/09/07 00:59:56;;;;;;;6.93;5.85;;;19.80;74.10;;;;;;5095981;28;20040;-70
2021/09/07 01:02:22;;;;;;;7.88;6.25;;;19.80;74.10;;;;;;5088499;28;20059;-69
2021/09/07 01:04:49;;;;;;;7.20;5.72;;;19.80;74.10;;;;;;5075315;28;20128;-70
2021/09/07 01:07:15;;;;;;;8.93;6.28;;;19.80;74.10;;;;;;5076537;28;20063;-70
2021/09/07 01:09:41;;;;;;;7.38;6.20;;;19.80;74.10;;;;;;5075168;28;20048;-70
2021/09/07 01:12:10;;;;;;;6.40;5.68;;;19.80;74.00;;;;;;5075692;28;20055;-70
2021/09/07 01:14:39;;;;;;;7.32;5.75;;;19.80;73.90;;;;;;5075550;28;20043;-69
2021/09/07 01:17:16;;;;;;;7.38;5.72;;;19.80;73.90;;;;;;5075549;28;20045;-70
2021/09/07 01:19:49;;;;;;;7.63;5.70;;;19.80;73.80;;;;;;5075234;28;20052;-70
2021/09/07 01:22:20;;;;;;;8.47;5.80;;;19.80;73.90;;;;;;5075769;28;20094;-70
2021/09/07 01:24:48;;;;;;;7.07;5.55;;;19.80;73.90;;;;;;5075190;28;20041;-69
2021/09/07 01:27:14;;;;;;;8.35;6.10;;;19.80;73.90;;;;;;5074875;28;20059;-69
2021/09/07 01:29:42;;;;;;;7.90;5.68;;;19.80;73.90;;;;;;5075114;28;20110;-70
2021/09/07 01:32:10;;;;;;;8.50;6.15;;;19.80;73.80;;;;;;5077684;28;20124;-69
2021/09/07 01:34:36;;;;;;;6.78;5.30;;;19.80;73.90;;;;;;5074962;28;20032;-69
2021/09/07 01:37:02;;;;;;;7.03;5.75;;;19.80;73.80;;;;;;5074996;28;20131;-70
2021/09/07 01:39:28;;;;;;;7.35;5.43;;;19.80;73.90;;;;;;5075142;28;20094;-70
2021/09/07 01:41:55;;;;;;;6.60;5.13;;;19.80;73.90;;;;;;5074857;28;20043;-70
2021/09/07 01:44:22;;;;;;;7.53;5.78;;;19.80;73.90;;;;;;5090004;28;20060;-70
2021/09/07 01:46:48;;;;;;;6.88;5.57;;;19.80;73.90;;;;;;5095002;28;20117;-69
2021/09/07 01:49:15;;;;;;;6.57;5.63;;;19.80;74.00;;;;;;5094762;28;20123;-70
2021/09/07 01:51:44;;;;;;;7.82;5.47;;;19.80;74.00;;;;;;5077242;28;20040;-70
2021/09/07 01:54:10;;;;;;;7.05;5.90;;;19.70;74.10;;;;;;5076802;28;20055;-69
2021/09/07 01:56:37;;;;;;;7.95;6.20;;;19.70;74.10;;;;;;5098427;28;20056;-69
2021/09/07 01:59:04;;;;;;;8.15;6.15;;;19.70;74.70;;;;;;5099115;28;20075;-70
2021/09/07 02:01:30;;;;;;;7.68;6.20;;;19.70;74.10;;;;;;5099142;28;20039;-70
2021/09/07 02:03:56;;;;;;;7.25;6.00;;;19.60;74.10;;;;;;5099097;28;20079;-69
2021/09/07 02:06:22;;;;;;;7.18;6.47;;;19.70;74.10;;;;;;5081335;28;20044;-70
2021/09/07 02:08:48;;;;;;;7.13;5.22;;;19.70;74.10;;;;;;5099021;28;20108;-70
2021/09/07 02:11:14;;;;;;;6.85;5.70;;;19.70;74.20;;;;;;5081365;28;20055;-70
2021/09/07 02:13:39;;;;;;;7.05;5.97;;;19.70;74.20;;;;;;5098946;28;20122;-69
2021/09/07 02:16:05;;;;;;;8.25;6.38;;;19.60;74.00;;;;;;5099594;28;20162;-70
2021/09/07 02:18:31;;;;;;;8.63;6.72;;;19.60;74.10;;;;;;5098803;28;20047;-69
2021/09/07 02:20:57;;;;;;;10.43;7.22;;;19.70;74.20;;;;;;5099245;28;20496;-69
2021/09/07 02:23:23;;;;;;;6.95;6.13;;;19.60;74.20;;;;;;5099198;28;20044;-70
2021/09/07 02:25:48;;;;;;;8.40;6.60;;;19.60;74.20;;;;;;5080688;28;20039;-70
2021/09/07 02:28:14;;;;;;;8.20;6.03;;;19.60;74.90;;;;;;5098571;28;20113;-70
2021/09/07 02:30:40;;;;;;;8.05;6.40;;;19.60;74.20;;;;;;5081091;28;20122;-70
2021/09/07 02:33:08;;;;;;;7.25;5.85;;;19.60;74.20;;;;;;5098287;28;20085;-69
2021/09/07 02:35:34;;;;;;;9.82;6.70;;;19.60;74.20;;;;;;5098011;28;20076;-70
2021/09/07 02:38:01;;;;;;;7.88;6.10;;;19.60;74.10;;;;;;5098478;28;20141;-69
2021/09/07 02:40:27;;;;;;;8.50;6.75;;;19.60;74.20;;;;;;5080979;28;20044;-69
2021/09/07 02:42:53;;;;;;;9.23;6.32;;;19.60;74.20;;;;;;5098067;28;20363;-70
2021/09/07 02:45:19;;;;;;;7.85;6.25;;;19.60;74.30;;;;;;5098450;28;20040;-70
2021/09/07 02:47:44;;;;;;;8.43;6.35;;;19.60;74.30;;;;;;5098240;28;20325;-69
2021/09/07 02:50:13;;;;;;;8.77;6.13;;;19.60;74.30;;;;;;5098281;28;20036;-70
2021/09/07 02:52:39;;;;;;;7.90;6.53;;;19.60;74.30;;;;;;5098312;28;20067;-70
2021/09/07 02:55:06;;;;;;;8.82;6.38;;;19.50;74.30;;;;;;5097737;28;20039;-69
2021/09/07 02:57:32;;;;;;;7.80;6.60;;;19.50;74.30;;;;;;5098252;28;20055;-70
2021/09/07 02:59:58;;;;;;;7.43;6.05;;;19.60;74.30;;;;;;5098282;28;20040;-70
2021/09/07 03:02:24;;;;;;;8.32;6.03;;;19.60;74.40;;;;;;5097771;28;20464;-70
2021/09/07 03:04:50;;;;;;;7.75;6.10;;;19.50;74.20;;;;;;5097425;28;20039;-70
2021/09/07 03:07:16;;;;;;;7.78;6.43;;;19.50;74.20;;;;;;5097085;28;20038;-70
2021/09/07 03:09:42;;;;;;;8.63;6.70;;;19.50;74.20;;;;;;5097795;28;20383;-69
2021/09/07 03:12:08;;;;;;;7.57;6.18;;;19.50;74.20;;;;;;5097795;28;20090;-69
2021/09/07 03:14:34;;;;;;;7.97;6.53;;;19.50;74.70;;;;;;5097749;28;20076;-70
2021/09/07 03:17:00;;;;;;;8.05;6.20;;;19.50;74.20;;;;;;5097668;28;20086;-70
2021/09/07 03:19:25;;;;;;;8.18;6.45;;;19.50;74.10;;;;;;5097561;28;20082;-69
2021/09/07 03:21:51;;;;;;;7.53;5.95;;;19.50;74.20;;;;;;5097904;28;20090;-69
2021/09/07 03:24:17;;;;;;;9.10;6.90;;;19.50;74.20;;;;;;5098530;28;20373;-70
2021/09/07 03:26:43;;;;;;;7.45;5.82;;;19.50;74.20;;;;;;5097688;28;20046;-69
2021/09/07 03:29:09;;;;;;;8.45;6.30;;;19.50;74.10;;;;;;5079614;28;20461;-70
2021/09/07 03:31:35;;;;;;;7.25;6.00;;;19.50;74.20;;;;;;5097158;28;20114;-69
2021/09/07 03:34:01;;;;;;;7.40;5.43;;;19.50;74.20;;;;;;5097528;28;20094;-69
2021/09/07 03:36:27;;;;;;;7.78;6.05;;;19.50;74.20;;;;;;5097494;28;20044;-70
2021/09/07 03:38:53;;;;;;;8.15;6.07;;;19.50;74.20;;;;;;5096794;28;20047;-71
2021/09/07 03:41:18;;;;;;;7.18;5.50;;;19.50;74.20;;;;;;5097522;28;20040;-70
2021/09/07 03:43:44;;;;;;;8.75;6.32;;;19.50;74.10;;;;;;5097287;28;20055;-69
2021/09/07 03:46:09;;;;;;;9.45;6.80;;;19.50;74.10;;;;;;5097713;28;20496;-70
2021/09/07 03:48:35;;;;;;;8.02;5.82;;;19.50;74.10;;;;;;5096876;28;20043;-70
2021/09/07 03:51:01;;;;;;;8.50;6.63;;;19.50;74.00;;;;;;5097106;28;20086;-70
2021/09/07 03:53:29;;;;;;;9.02;6.13;;;19.50;74.00;;;;;;5096950;28;20131;-69
2021/09/07 03:55:54;;;;;;;9.07;6.35;;;19.50;74.00;;;;;;5096896;28;20505;-70
2021/09/07 03:58:20;;;;;;;8.52;5.55;;;19.50;74.00;;;;;;5079286;28;20036;-70
2021/09/07 04:00:46;;;;;;;7.32;5.60;;;19.50;74.10;;;;;;5096814;28;20043;-70
2021/09/07 04:03:17;;;;;;;7.18;5.68;;;19.50;74.00;;;;;;5096791;28;20499;-70
2021/09/07 04:05:43;;;;;;;6.88;5.60;;;19.50;74.00;;;;;;5096233;28;20040;-70
2021/09/07 04:08:10;;;;;;;6.47;5.43;;;19.50;74.00;;;;;;5096474;28;20066;-69
2021/09/07 04:10:35;;;;;;;6.88;5.65;;;19.50;74.00;;;;;;5096683;28;20347;-70
2021/09/07 04:13:01;;;;;;;8.48;6.13;;;19.50;74.00;;;;;;5096624;28;20055;-70
2021/09/07 04:15:27;;;;;;;6.97;5.72;;;19.50;74.00;;;;;;5096219;28;20040;-70
2021/09/07 04:17:52;;;;;;;7.65;6.00;;;19.40;73.90;;;;;;5096158;28;20104;-69
2021/09/07 04:20:18;;;;;;;7.85;6.05;;;19.40;73.90;;;;;;5096882;28;20466;-70
2021/09/07 04:22:44;;;;;;;7.75;5.88;;;19.50;74.00;;;;;;5096505;28;20043;-69
2021/09/07 04:25:10;;;;;;;8.20;6.65;;;19.50;74.00;;;;;;5096479;28;20035;-69
2021/09/07 04:27:37;;;;;;;8.05;6.15;;;19.50;74.00;;;;;;5096333;28;20351;-70
2021/09/07 04:30:05;;;;;;;10.70;7.00;;;19.50;73.90;;;;;;5096248;28;20461;-71
2021/09/07 04:32:30;;;;;;;8.27;6.03;;;19.50;73.80;;;;;;5096087;28;20044;-69
2021/09/07 04:34:56;;;;;;;8.18;6.22;;;19.50;73.70;;;;;;5096310;28;20347;-68
2021/09/07 04:37:24;;;;;;;10.55;6.43;;;19.50;73.80;;;;;;5094559;28;20055;-70
2021/09/07 04:39:50;;;;;;;13.25;7.95;;;19.40;73.40;;;;;;5095890;28;20473;-71
2021/09/07 04:42:19;;;;;;;8.05;6.43;;;19.40;73.30;;;;;;5095736;28;20115;-70
2021/09/07 04:44:45;;;;;;;13.48;10.32;;;19.40;73.60;;;;;;5095586;28;20054;-70
2021/09/07 04:47:11;;;;;;;15.32;12.25;;;19.50;73.20;;;;;;5095994;28;20051;-70
2021/09/07 04:49:37;;;;;;;16.77;12.68;;;19.40;72.20;;;;;;5096313;28;20036;-69
2021/09/07 04:52:03;;;;;;;17.42;13.43;;;19.40;71.70;;;;;;5095888;28;20427;-70
2021/09/07 04:54:29;;;;;;;16.85;12.63;;;19.30;71.60;;;;;;5093610;28;20032;-71
2021/09/07 04:56:55;;;;;;;16.95;12.27;;;19.30;71.60;;;;;;5074918;28;20044;-76
2021/09/07 04:59:21;;;;;;;17.75;13.35;;;19.20;71.70;;;;;;5060980;28;20040;-75
2021/09/07 05:01:47;;;;;;;18.35;13.18;;;19.10;71.80;;;;;;5074095;28;20040;-70
2021/09/07 05:04:12;;;;;;;14.45;12.02;;;19.10;71.80;;;;;;5075943;28;20046;-72
2021/09/07 05:06:38;;;;;;;17.92;12.82;;;19.00;71.80;;;;;;5093735;28;20035;-70
2021/09/07 05:09:04;;;;;;;15.88;11.88;;;19.00;72.20;;;;;;5095125;28;20036;-70
2021/09/07 05:11:30;;;;;;;18.75;13.27;;;18.90;72.20;;;;;;5096012;28;20338;-71
2021/09/07 05:13:56;;;;;;;20.45;14.30;;;18.90;72.30;;;;;;5094693;28;20082;-70
2021/09/07 05:16:22;;;;;;;19.35;14.15;;;18.80;72.30;;;;;;5095245;28;20036;-71
2021/09/07 05:18:48;;;;;;;18.65;14.35;;;18.80;72.50;;;;;;5095644;28;20492;-71
2021/09/07 05:21:13;;;;;;;18.48;14.27;;;18.70;72.70;;;;;;5094739;28;20040;-71
2021/09/07 05:23:39;;;;;;;20.45;14.20;;;18.70;72.80;;;;;;5076907;28;20096;-71
2021/09/07 05:26:05;;;;;;;18.10;13.73;;;18.70;73.00;;;;;;5095384;28;20052;-70
2021/09/07 05:28:31;;;;;;;16.08;12.98;;;18.60;73.10;;;;;;5095226;28;20407;-70
2021/09/07 05:30:58;;;;;;;19.70;14.25;;;18.70;73.40;;;;;;5077680;28;20048;-70
2021/09/07 05:33:24;;;;;;;20.48;14.85;;;18.60;73.30;;;;;;5088817;28;20444;-72
2021/09/07 05:35:50;;;;;;;20.65;14.23;;;18.60;73.30;;;;;;5093693;28;20439;-73
2021/09/07 05:38:16;;;;;;;19.02;14.32;;;18.60;73.50;;;;;;5094828;28;20039;-68
2021/09/07 05:40:42;;;;;;;22.40;14.45;;;18.50;73.50;;;;;;5077077;28;20443;-70
2021/09/07 05:43:07;;;;;;;18.63;14.05;;;18.50;73.40;;;;;;5090382;28;20139;-70
2021/09/07 05:45:33;;;;;;;19.00;14.93;;;18.50;73.40;;;;;;5094731;28;20048;-69
2021/09/07 05:47:59;;;;;;;18.88;14.57;;;18.50;73.50;;;;;;5076758;28;20055;-77
2021/09/07 05:50:25;;;;;;;23.45;14.52;;;18.50;74.30;;;;;;5095203;28;20039;-80
2021/09/07 05:52:50;;;;;;;21.17;14.07;;;18.40;73.90;;;;;;5093675;28;20044;-79
2021/09/07 05:55:16;;;;;;;19.63;14.60;;;18.50;74.00;;;;;;5077057;28;20036;-76
2021/09/07 05:57:43;;;;;;;17.75;14.02;;;18.40;73.90;;;;;;5094131;28;20436;-77
2021/09/07 06:00:10;;;;;;;18.23;13.50;;;18.40;74.10;;;;;;5077348;28;20451;-78
2021/09/07 06:02:37;;;;;;;18.52;13.98;;;18.30;74.30;;;;;;5076589;28;20098;-79
2021/09/07 06:05:04;;;;;;;18.45;13.98;;;18.30;74.70;;;;;;5077228;28;20062;-78
2021/09/07 06:07:29;;;;;;;19.85;14.57;;;18.30;74.90;;;;;;5094071;28;20047;-79
2021/09/07 06:09:55;;;;;;;17.80;14.93;;;18.30;75.00;;;;;;5077099;28;20048;-79
2021/09/07 06:12:21;;;;;;;19.25;14.07;;;18.30;75.10;;;;;;5059895;28;20033;-78
2021/09/07 06:14:47;;;;;;;19.63;14.50;;;18.40;75.20;;;;;;5094439;28;20058;-74
2021/09/07 06:17:13;;;;;;;18.73;14.15;;;18.40;75.20;;;;;;5095348;28;20051;-75
2021/09/07 06:19:38;;;;;;;20.35;14.52;;;18.40;75.30;;;;;;5076832;28;20119;-75
2021/09/07 06:22:04;;;;;;;21.50;14.00;;;18.50;75.30;;;;;;5076984;28;20040;-75
2021/09/07 06:24:30;;;;;;;23.35;15.27;;;18.50;75.00;;;;;;5095372;28;20044;-75
2021/09/07 06:26:59;;;;;;;23.02;15.23;;;18.50;74.70;;;;;;5076454;28;20044;-73
2021/09/07 06:29:31;;;;;;;27.63;13.98;;;18.60;74.40;;;;;;5094631;28;20044;-75
2021/09/07 06:32:01;;;;;;;24.73;14.85;;;18.60;74.30;;;;;;5076486;28;20040;-74
2021/09/07 06:34:27;;;;;;;23.73;14.15;;;18.70;74.40;;;;;;5076237;28;20141;-76
2021/09/07 06:36:54;;;;;;;29.67;14.82;;;18.70;74.50;;;;;;5094076;28;20059;-75
2021/09/07 06:39:20;;;;;;;25.88;13.82;;;18.70;74.80;;;;;;5076643;28;20058;-74
2021/09/07 06:41:46;;;;;;;22.10;12.57;;;18.80;75.00;;;;;;5095360;28;20032;-76
2021/09/07 06:44:12;;;;;;;22.92;12.48;;;18.90;75.10;;;;;;5098188;28;20058;-77
2021/09/07 06:46:37;;;;;;;25.73;12.20;;;18.90;75.00;;;;;;5098549;28;20347;-77
2021/09/07 06:49:03;;;;;;;21.40;13.23;;;19.00;74.90;;;;;;5097931;28;20044;-78
2021/09/07 06:51:29;;;;;;;26.63;12.85;;;19.00;74.70;;;;;;5097465;28;20118;-76
2021/09/07 06:53:54;;;;;;;27.08;12.65;;;19.00;74.60;;;;;;5080478;28;20043;-77
2021/09/07 06:56:20;;;;;;;19.58;11.85;;;19.10;74.50;;;;;;5080244;28;20343;-76
2021/09/07 06:58:46;;;;;;;18.98;11.82;;;19.10;74.40;;;;;;5080377;28;20117;-77
2021/09/07 07:01:11;;;;;;;21.83;12.57;;;19.10;74.50;;;;;;5077846;28;20478;-77
2021/09/07 07:03:37;;;;;;;22.38;13.02;;;19.10;74.30;;;;;;5079634;28;20195;-76
2021/09/07 07:06:03;;;;;;;22.42;12.32;;;19.10;74.10;;;;;;5097851;28;20020;-70
2021/09/07 07:08:29;;;;;;;20.17;11.80;;;19.20;74.10;;;;;;5079469;28;20451;-75
2021/09/07 07:10:54;;;;;;;24.38;12.98;;;19.20;74.10;;;;;;5097949;28;20047;-69
2021/09/07 07:13:20;;;;;;;20.25;12.20;;;19.20;74.00;;;;;;5075797;28;20110;-69
2021/09/07 07:15:46;;;;;;;19.73;11.65;;;19.20;74.00;;;;;;5077609;28;20079;-69
2021/09/07 07:18:12;;;;;;;18.88;11.63;;;19.20;74.00;;;;;;5085523;28;20044;-71
2021/09/07 07:20:38;;;;;;;15.82;10.40;;;19.20;74.00;;;;;;5097681;28;20051;-70
2021/09/07 07:23:03;;;;;;;17.48;9.85;;;19.30;74.10;;;;;;5097397;28;20427;-70
2021/09/07 07:25:31;;;;;;;16.52;10.23;;;19.30;74.20;;;;;;5098388;28;20100;-69
2021/09/07 07:27:57;;;;;;;19.65;10.90;;;19.30;74.10;;;;;;5097077;28;20513;-70
2021/09/07 07:30:23;;;;;;;15.02;9.68;;;19.30;74.10;;;;;;5096741;28;20072;-70
2021/09/07 07:32:48;;;;;;;14.43;9.15;;;19.30;74.10;;;;;;5097168;28;20036;-69
2021/09/07 07:35:14;;;;;;;13.48;8.85;;;19.30;74.10;;;;;;5097578;28;20032;-70
2021/09/07 07:37:40;;;;;;;14.88;8.23;;;19.30;74.10;;;;;;5097416;28;20115;-70
2021/09/07 07:40:06;;;;;;;13.20;9.27;;;19.40;74.10;;;;;;5097735;28;20423;-70
2021/09/07 07:42:32;;;;;;;13.13;8.82;;;19.40;74.00;;;;;;5079376;28;20148;-71
2021/09/07 07:44:58;;;;;;;12.85;8.27;;;19.40;74.10;;;;;;5079109;28;20487;-69
2021/09/07 07:47:23;;;;;;;13.23;8.13;;;19.40;74.10;;;;;;5097494;28;20427;-69
2021/09/07 07:49:49;;;;;;;15.23;7.80;;;19.40;74.20;;;;;;5096739;28;20139;-70
2021/09/07 07:52:15;;;;;;;10.45;7.90;;;19.50;74.30;;;;;;5079604;28;20119;-70
2021/09/07 07:54:41;;;;;;;13.77;8.07;;;19.40;74.20;;;;;;5095867;28;20028;-71
2021/09/07 07:57:07;;;;;;;12.18;7.65;;;19.50;74.20;;;;;;5097177;28;20058;-70
2021/09/07 07:59:33;;;;;;;10.02;7.53;;;19.50;74.30;;;;;;5097028;28;20040;-70
2021/09/07 08:01:58;;;;;;;11.45;7.53;;;19.50;74.20;;;;;;5096399;28;20048;-70
2021/09/07 08:04:24;;;;;;;9.40;6.70;;;19.60;74.30;;;;;;5096927;28;20048;-70
2021/09/07 08:06:50;;;;;;;9.82;6.75;;;19.50;74.30;;;;;;5096790;28;20127;-70
2021/09/07 08:09:15;;;;;;;10.05;7.05;;;19.50;74.30;;;;;;5095942;28;20055;-71
2021/09/07 08:11:41;;;;;;;10.70;7.28;;;19.60;74.40;;;;;;5096856;28;20146;-70
2021/09/07 08:14:07;;;;;;;8.77;6.45;;;19.60;74.50;;;;;;5095850;28;20035;-70
2021/09/07 08:16:33;;;;;;;11.40;7.40;;;19.60;74.40;;;;;;5096398;28;20040;-70
2021/09/07 08:18:59;;;;;;;7.20;6.07;;;19.60;74.40;;;;;;5096552;28;20064;-70
2021/09/07 08:21:28;;;;;;;9.25;6.13;;;19.70;74.40;;;;;;5096873;28;20090;-70
2021/09/07 08:23:54;;;;;;;8.82;6.13;;;19.60;74.30;;;;;;5058491;28;20401;-70
2021/09/07 08:26:20;;;;;;;8.60;6.57;;;19.70;74.40;;;;;;5076372;28;20182;-70
2021/09/07 08:28:46;;;;;;;8.05;6.20;;;19.70;74.40;;;;;;5094610;28;20119;-70
2021/09/07 08:31:12;;;;;;;10.32;6.20;;;19.70;74.40;;;;;;5096655;28;20083;-71
2021/09/07 08:33:37;;;;;;;11.27;6.03;;;19.70;74.40;;;;;;5095949;28;20141;-71
2021/09/07 08:36:03;;;;;;;8.45;5.82;;;19.70;74.30;;;;;;5095875;28;20047;-70
2021/09/07 08:38:32;;;;;;;8.40;6.10;;;19.70;74.30;;;;;;5096025;28;20093;-69
2021/09/07 08:40:58;;;;;;;8.40;6.63;;;19.80;74.40;;;;;;5096448;28;20309;-70
2021/09/07 08:43:25;;;;;;;10.13;6.43;;;19.80;74.40;;;;;;5095427;28;20127;-70
2021/09/07 08:45:52;;;;;;;9.30;6.20;;;19.80;74.40;;;;;;5096411;28;20040;-70
2021/09/07 08:48:21;;;;;;;8.88;6.25;;;19.80;74.40;;;;;;5096389;28;20040;-71
2021/09/07 08:50:49;;;;;;;6.63;5.88;;;19.80;74.90;;;;;;5095785;28;20040;-71
2021/09/07 08:53:15;;;;;;;8.27;5.72;;;19.80;74.30;;;;;;5096257;28;20050;-69
2021/09/07 08:55:41;;;;;;;9.98;6.30;;;19.80;74.30;;;;;;5095229;28;20032;-70
2021/09/07 08:58:07;;;;;;;7.13;5.18;;;19.90;74.40;;;;;;5096408;28;20143;-70
2021/09/07 09:00:33;;;;;;;9.98;6.30;;;19.90;74.30;;;;;;5095292;28;20363;-70
2021/09/07 09:03:08;;;;;;;8.45;5.50;;;19.90;74.30;;;;;;5095151;28;20072;-70
2021/09/07 09:05:34;;;;;;;8.35;5.97;;;19.90;74.20;;;;;;5094810;28;20451;-70
2021/09/07 09:07:59;;;;;;;9.75;6.18;;;19.90;74.30;;;;;;5095372;28;20124;-70
2021/09/07 09:10:27;;;;;;;7.60;5.78;;;19.90;74.90;;;;;;5095741;28;20130;-70
2021/09/07 09:13:11;;;;;;;9.75;5.97;;;19.90;74.30;;;;;;5095251;28;20039;-70
2021/09/07 09:15:39;;;;;;;7.72;5.60;;;19.90;74.20;;;;;;5089847;28;20055;-70
2021/09/07 09:18:10;;;;;;;7.68;5.20;;;19.90;74.20;;;;;;5095158;28;20059;-70
2021/09/07 09:20:38;;;;;;;7.47;5.97;;;19.90;74.20;;;;;;5095626;28;20090;-70
2021/09/07 09:23:08;;;;;;;10.05;5.57;;;20.00;74.30;;;;;;5095253;28;20036;-71
2021/09/07 09:25:37;;;;;;;8.70;6.28;;;20.00;74.20;;;;;;5095613;28;20169;-70
2021/09/07 09:28:21;;;;;;;9.05;6.40;;;20.00;74.20;;;;;;5094611;28;20439;-71
2021/09/07 09:30:49;;;;;;;6.75;5.63;;;20.00;74.10;;;;;;5095161;28;20127;-70
2021/09/07 09:33:25;;;;;;;8.98;6.70;;;20.00;74.30;;;;;;5078020;28;20040;-70
2021/09/07 09:35:55;;;;;;;6.50;5.78;;;20.00;74.20;;;;;;5076764;28;20044;-70
2021/09/07 09:38:32;;;;;;;8.25;6.05;;;20.10;74.30;;;;;;5094111;28;20036;-71
2021/09/07 09:41:02;;;;;;;8.82;6.03;;;20.00;74.20;;;;;;5095208;28;20086;-70
2021/09/07 09:43:45;;;;;;;8.00;6.05;;;20.10;74.20;;;;;;5094649;28;20048;-70
2021/09/07 09:46:20;;;;;;;9.15;5.80;;;20.10;74.00;;;;;;5096008;28;20055;-70
2021/09/07 09:48:46;;;;;;;7.78;5.97;;;20.10;74.00;;;;;;5094869;28;20127;-71
2021/09/07 09:51:16;;;;;;;9.38;6.57;;;20.10;74.00;;;;;;5095166;28;20114;-71
2021/09/07 09:53:47;;;;;;;8.50;6.25;;;20.10;74.00;;;;;;5094888;28;20175;-71
2021/09/07 09:56:13;;;;;;;7.15;5.72;;;20.10;73.90;;;;;;5094919;28;20044;-71
2021/09/07 09:58:39;;;;;;;7.57;5.43;;;20.10;73.90;;;;;;5095282;28;20347;-70
2021/09/07 10:01:05;;;;;;;8.43;5.78;;;20.10;73.90;;;;;;5094755;28;20055;-70
2021/09/07 10:03:33;;;;;;;8.55;6.13;;;20.20;74.00;;;;;;5094729;28;20036;-70
2021/09/07 10:05:59;;;;;;;8.85;5.95;;;20.20;74.00;;;;;;5095010;28;20047;-71
2021/09/07 10:08:25;;;;;;;8.45;5.78;;;20.20;74.00;;;;;;5094325;28;20039;-71
2021/09/07 10:11:06;;;;;;;7.75;5.53;;;20.20;73.90;;;;;;5094981;28;20051;-71
2021/09/07 10:13:35;;;;;;;6.47;5.50;;;20.20;73.80;;;;;;5094266;28;20051;-71
2021/09/07 10:16:07;;;;;;;7.05;6.00;;;20.20;73.90;;;;;;5095313;28;20043;-70
2021/09/07 10:23:54;;;;;;;7.15;5.78;;;20.20;73.80;;;;;;5098657;28;20040;-70
2021/09/07 10:26:42;;;;;;;8.20;6.38;;;20.20;73.80;;;;;;5081312;28;20056;-71
2021/09/07 10:29:09;;;;;;;7.43;5.47;;;20.20;73.70;;;;;;5098393;28;20043;-71
2021/09/07 10:31:48;;;;;;;7.35;5.95;;;20.20;73.80;;;;;;5098424;28;20040;-72
2021/09/07 10:34:16;;;;;;;8.02;6.00;;;20.30;73.80;;;;;;5096887;28;20042;-72
2021/09/07 10:37:08;;;;;;;8.02;5.97;;;20.30;73.90;;;;;;5098231;28;20046;-70
2021/09/07 10:39:37;;;;;;;7.70;6.30;;;20.20;73.60;;;;;;5097938;28;20047;-71
2021/09/07 10:42:08;;;;;;;6.55;5.55;;;20.30;73.90;;;;;;5099007;28;20355;-71
2021/09/07 10:44:36;;;;;;;7.60;6.10;;;20.30;73.90;;;;;;5098243;28;20518;-71
2021/09/07 10:47:10;;;;;;;6.65;5.80;;;20.30;73.90;;;;;;5096727;28;20040;-71
2021/09/07 10:49:45;;;;;;;9.35;6.43;;;20.30;73.90;;;;;;5095235;28;20052;-71
2021/09/07 10:52:31;;;;;;;8.48;6.03;;;20.30;74.10;;;;;;5098407;28;20044;-70
2021/09/07 10:55:13;;;;;;;7.85;6.40;;;20.30;74.20;;;;;;5097184;28;20128;-68
2021/09/07 10:57:40;;;;;;;13.20;7.25;;;20.30;74.40;;;;;;5097301;28;20564;-71
2021/09/07 11:00:24;;;;;;;13.15;6.70;;;20.30;74.30;;;;;;5097449;28;20044;-71
2021/09/07 11:02:54;;;;;;;;;;;20.40;74.50;;;;;;5096771;28;20534;-71
2021/09/07 11:05:26;;;;;;;15.57;8.82;;;20.30;74.40;;;;;;5098449;28;19927;-71
2021/09/07 11:08:06;;;;;;;14.20;8.05;;;20.40;74.30;;;;;;5095353;28;20044;-71
2021/09/07 11:10:38;;;;;;;12.63;8.45;;;20.40;74.10;;;;;;5096952;28;20051;-71
2021/09/07 11:13:15;;;;;;;13.73;8.32;;;20.40;74.00;;;;;;5096780;28;20047;-71
2021/09/07 11:15:43;;;;;;;11.52;7.78;;;20.40;73.90;;;;;;5095815;28;20166;-78
2021/09/07 11:18:21;;;;;;;15.05;9.27;;;20.40;73.90;;;;;;5090733;28;20047;-71
2021/09/07 11:20:49;;;;;;;12.18;8.35;;;20.40;74.20;;;;;;5095465;28;20082;-71
2021/09/07 11:23:28;;;;;;;15.57;8.45;;;20.40;74.00;;;;;;5097501;28;20047;-71
2021/09/07 11:26:01;;;;;;;15.68;9.35;;;20.50;74.00;;;;;;5097464;28;20044;-69
2021/09/07 11:28:28;;;;;;;16.83;10.20;;;20.50;73.90;;;;;;5096403;28;20047;-71
2021/09/07 11:30:54;;;;;;;15.20;9.25;;;20.50;73.90;;;;;;5097192;28;20290;-68
2021/09/07 11:33:23;;;;;;;12.98;8.45;;;20.50;73.90;;;;;;5097435;28;20056;-70
2021/09/07 11:35:52;;;;;;;16.92;9.75;;;20.50;74.00;;;;;;5096857;28;20082;-73
2021/09/07 11:38:26;;;;;;;13.77;8.95;;;20.50;74.00;;;;;;5097214;28;20367;-74
2021/09/07 11:40:52;;;;;;;;;;;20.50;74.00;;;;;;5098001;28;20158;-71
2021/09/07 11:43:37;;;;;;;13.75;9.65;;;20.60;74.00;;;;;;5097031;28;19927;-72
2021/09/07 11:46:03;;;;;;;14.68;10.30;;;20.50;74.00;;;;;;5097130;28;20052;-71
2021/09/07 11:48:29;;;;;;;19.70;11.02;;;20.50;74.00;;;;;;5097216;28;20040;-72
2021/09/07 11:50:54;;;;;;;18.83;11.02;;;20.60;74.30;;;;;;5097593;28;20044;-74
2021/09/07 11:53:20;;;;;;;19.30;10.38;;;20.60;74.30;;;;;;5096841;28;20106;-77
2021/09/07 11:55:49;;;;;;;13.93;10.55;;;20.60;74.30;;;;;;5077555;28;20178;-77
2021/09/07 11:58:29;;;;;;;19.20;12.35;;;20.70;73.90;;;;;;5077236;28;20332;-77
2021/09/07 12:01:18;;;;;;;14.77;11.93;;;20.70;73.40;;;;;;5076715;28;20052;-78
2021/09/07 12:03:52;;;;;;;15.68;11.52;;;20.70;73.20;;;;;;5059364;28;20131;-78
2021/09/07 12:06:37;;;;;;;18.88;11.77;;;20.70;73.00;;;;;;5076625;28;20410;-78
2021/09/07 12:09:22;;;;;;;15.18;11.38;;;20.70;73.00;;;;;;5076308;28;20072;-79
2021/09/07 12:11:53;;;;;;;16.60;11.98;;;20.70;72.90;;;;;;5088129;28;20028;-79
2021/09/07 12:14:24;;;;;;;19.80;12.82;;;20.80;72.80;;;;;;5079088;28;20339;-79
2021/09/07 12:16:57;;;;;;;13.68;10.82;;;20.80;72.30;;;;;;5096837;28;20036;-71
2021/09/07 12:19:31;;;;;;;16.23;11.35;;;20.80;72.60;;;;;;5097386;28;20039;-71
2021/09/07 12:22:20;;;;;;;15.27;11.60;;;20.80;72.90;;;;;;5096881;28;20048;-72
2021/09/07 12:25:06;;;;;;;15.50;10.95;;;20.80;73.20;;;;;;5096567;28;20043;-72
2021/09/07 12:27:44;;;;;;;15.15;11.50;;;20.80;73.10;;;;;;5096072;28;20051;-71
2021/09/07 12:30:28;;;;;;;14.10;10.60;;;20.80;73.00;;;;;;5096486;28;20126;-72
2021/09/07 12:32:55;;;;;;;14.43;11.25;;;20.80;73.20;;;;;;5096684;28;20347;-72
2021/09/07 12:35:31;;;;;;;14.10;10.63;;;20.80;73.20;;;;;;5096086;28;20055;-72
2021/09/07 12:38:03;;;;;;;13.00;10.13;;;20.80;73.20;;;;;;5095847;28;20040;-71
2021/09/07 12:40:29;;;;;;;13.68;10.32;;;20.80;73.30;;;;;;5095316;28;20044;-72
2021/09/07 12:42:55;;;;;;;17.13;11.27;;;20.80;73.30;;;;;;5095782;28;20048;-71
2021/09/07 12:45:22;;;;;;;13.32;10.35;;;20.80;73.30;;;;;;5096247;28;20478;-71
2021/09/07 12:47:47;;;;;;;15.85;10.70;;;20.80;73.40;;;;;;5096212;28;20036;-76
2021/09/07 12:50:13;;;;;;;14.80;10.65;;;20.80;73.40;;;;;;5078458;28;20044;-72